Terminal Aerodrome Forecast
Issued by NWS Mt. Holly, NJ

Home | Current Version | Previous Version | Text Only | Print | Product List | Glossary On
Versions: 1 2 3 4 5 6 7 8 9 10 11 12 13 14 15 16 17 18 19 20 21 22
000
FTUS41 KPHI 222300 RRA
TAFTTN
TAF
KTTN 222344Z 2300/2324 04005KT 4SM -RA BR OVC006
      TEMPO 2301/2302 2SM RA
     FM230600 07007KT 2SM -RA BR OVC004
     FM231700 10005KT 5SM BR OVC006=

USA.gov is the U.S. government's official web portal to all federal, state and local government web resources and services.